sensor_id;sensor_type;location;lat;lon;timestamp;P1;durP1;ratioP1;P2;durP2;ratioP2
15958;SDS011;8078;47.822;9.402;2022-07-25T00:00:16;9.80;;;8.52;;
15958;SDS011;8078;47.822;9.402;2022-07-25T00:02:42;10.02;;;8.23;;
15958;SDS011;8078;47.822;9.402;2022-07-25T00:05:08;9.60;;;8.48;;
15958;SDS011;8078;47.822;9.402;2022-07-25T00:07:33;9.43;;;8.15;;
15958;SDS011;8078;47.822;9.402;2022-07-25T00:09:59;8.63;;;7.70;;
15958;SDS011;8078;47.822;9.402;2022-07-25T00:12:24;8.88;;;7.97;;
15958;SDS011;8078;47.822;9.402;2022-07-25T00:14:50;8.90;;;8.07;;
15958;SDS011;8078;47.822;9.402;2022-07-25T00:17:16;9.05;;;7.82;;
15958;SDS011;8078;47.822;9.402;2022-07-25T00:19:41;8.90;;;8.00;;
15958;SDS011;8078;47.822;9.402;2022-07-25T00:22:07;8.70;;;7.57;;
15958;SDS011;8078;47.822;9.402;2022-07-25T00:24:33;10.50;;;8.30;;
15958;SDS011;8078;47.822;9.402;2022-07-25T00:26:58;9.70;;;8.65;;
15958;SDS011;8078;47.822;9.402;2022-07-25T00:29:24;10.73;;;8.95;;
15958;SDS011;8078;47.822;9.402;2022-07-25T00:31:49;12.85;;;9.23;;
15958;SDS011;8078;47.822;9.402;2022-07-25T00:34:15;12.27;;;9.38;;
15958;SDS011;8078;47.822;9.402;2022-07-25T00:36:40;14.27;;;9.55;;
15958;SDS011;8078;47.822;9.402;2022-07-25T00:39:06;13.00;;;9.35;;
15958;SDS011;8078;47.822;9.402;2022-07-25T00:41:32;12.63;;;9.73;;
15958;SDS011;8078;47.822;9.402;2022-07-25T00:43:57;10.95;;;9.52;;
15958;SDS011;8078;47.822;9.402;2022-07-25T00:46:23;12.45;;;9.77;;
15958;SDS011;8078;47.822;9.402;2022-07-25T00:48:48;11.32;;;9.75;;
15958;SDS011;8078;47.822;9.402;2022-07-25T00:51:14;11.13;;;10.00;;
15958;SDS011;8078;47.822;9.402;2022-07-25T00:53:40;11.88;;;9.10;;
15958;SDS011;8078;47.822;9.402;2022-07-25T00:56:06;12.57;;;10.13;;
15958;SDS011;8078;47.822;9.402;2022-07-25T00:58:32;11.35;;;10.20;;
15958;SDS011;8078;47.822;9.402;2022-07-25T01:00:58;10.90;;;9.82;;
15958;SDS011;8078;47.822;9.402;2022-07-25T01:03:24;10.25;;;9.18;;
15958;SDS011;8078;47.822;9.402;2022-07-25T01:05:50;11.60;;;9.88;;
15958;SDS011;8078;47.822;9.402;2022-07-25T01:08:17;12.68;;;10.82;;
15958;SDS011;8078;47.822;9.402;2022-07-25T01:10:43;14.50;;;10.63;;
15958;SDS011;8078;47.822;9.402;2022-07-25T01:13:09;13.32;;;10.95;;
15958;SDS011;8078;47.822;9.402;2022-07-25T01:15:35;11.93;;;10.73;;
15958;SDS011;8078;47.822;9.402;2022-07-25T01:18:01;13.63;;;10.60;;
15958;SDS011;8078;47.822;9.402;2022-07-25T01:20:27;13.77;;;10.77;;
15958;SDS011;8078;47.822;9.402;2022-07-25T01:22:54;15.20;;;11.15;;
15958;SDS011;8078;47.822;9.402;2022-07-25T01:25:21;14.27;;;11.20;;
15958;SDS011;8078;47.822;9.402;2022-07-25T01:27:47;14.63;;;10.95;;
15958;SDS011;8078;47.822;9.402;2022-07-25T01:30:14;13.18;;;10.52;;
15958;SDS011;8078;47.822;9.402;2022-07-25T01:32:41;12.27;;;10.57;;
15958;SDS011;8078;47.822;9.402;2022-07-25T01:35:08;13.07;;;10.25;;
15958;SDS011;8078;47.822;9.402;2022-07-25T01:37:34;12.77;;;10.23;;
15958;SDS011;8078;47.822;9.402;2022-07-25T01:40:00;11.13;;;9.98;;
15958;SDS011;8078;47.822;9.402;2022-07-25T01:42:26;12.15;;;10.40;;
15958;SDS011;8078;47.822;9.402;2022-07-25T01:44:52;11.05;;;9.90;;
15958;SDS011;8078;47.822;9.402;2022-07-25T01:47:18;12.73;;;10.50;;
15958;SDS011;8078;47.822;9.402;2022-07-25T01:49:44;13.55;;;11.02;;
15958;SDS011;8078;47.822;9.402;2022-07-25T01:52:10;12.77;;;10.63;;
15958;SDS011;8078;47.822;9.402;2022-07-25T01:54:37;13.52;;;11.85;;
15958;SDS011;8078;47.822;9.402;2022-07-25T01:57:03;13.88;;;10.38;;
15958;SDS011;8078;47.822;9.402;2022-07-25T01:59:29;14.25;;;10.90;;
15958;SDS011;8078;47.822;9.402;2022-07-25T02:01:55;14.27;;;10.90;;
15958;SDS011;8078;47.822;9.402;2022-07-25T02:04:21;12.93;;;10.95;;
15958;SDS011;8078;47.822;9.402;2022-07-25T02:06:46;12.32;;;10.98;;
15958;SDS011;8078;47.822;9.402;2022-07-25T02:09:12;15.50;;;10.85;;
15958;SDS011;8078;47.822;9.402;2022-07-25T02:11:38;13.25;;;10.68;;
15958;SDS011;8078;47.822;9.402;2022-07-25T02:14:03;13.27;;;10.70;;
15958;SDS011;8078;47.822;9.402;2022-07-25T02:16:29;13.70;;;10.50;;
15958;SDS011;8078;47.822;9.402;2022-07-25T02:18:55;11.68;;;10.45;;
15958;SDS011;8078;47.822;9.402;2022-07-25T02:21:20;13.65;;;10.85;;
15958;SDS011;8078;47.822;9.402;2022-07-25T02:23:46;11.65;;;10.30;;
15958;SDS011;8078;47.822;9.402;2022-07-25T02:26:12;11.65;;;10.18;;
15958;SDS011;8078;47.822;9.402;2022-07-25T02:28:38;12.15;;;10.68;;
15958;SDS011;8078;47.822;9.402;2022-07-25T02:31:04;11.23;;;10.00;;
15958;SDS011;8078;47.822;9.402;2022-07-25T02:33:30;10.90;;;9.02;;
15958;SDS011;8078;47.822;9.402;2022-07-25T02:35:56;10.88;;;9.35;;
15958;SDS011;8078;47.822;9.402;2022-07-25T02:38:21;12.02;;;10.77;;
15958;SDS011;8078;47.822;9.402;2022-07-25T02:40:47;10.68;;;9.57;;
15958;SDS011;8078;47.822;9.402;2022-07-25T02:43:14;10.30;;;9.27;;
15958;SDS011;8078;47.822;9.402;2022-07-25T02:45:39;11.07;;;9.68;;
15958;SDS011;8078;47.822;9.402;2022-07-25T02:48:05;10.02;;;8.98;;
15958;SDS011;8078;47.822;9.402;2022-07-25T02:50:31;9.80;;;8.77;;
15958;SDS011;8078;47.822;9.402;2022-07-25T02:52:57;11.55;;;9.23;;
15958;SDS011;8078;47.822;9.402;2022-07-25T02:55:22;13.48;;;9.30;;
15958;SDS011;8078;47.822;9.402;2022-07-25T02:57:49;9.90;;;8.90;;
15958;SDS011;8078;47.822;9.402;2022-07-25T03:00:14;10.57;;;9.55;;
15958;SDS011;8078;47.822;9.402;2022-07-25T03:02:40;10.60;;;9.50;;
15958;SDS011;8078;47.822;9.402;2022-07-25T03:05:07;11.10;;;9.77;;
15958;SDS011;8078;47.822;9.402;2022-07-25T03:07:34;13.43;;;9.43;;
15958;SDS011;8078;47.822;9.402;2022-07-25T03:10:00;10.70;;;9.60;;
15958;SDS011;8078;47.822;9.402;2022-07-25T03:12:27;11.05;;;9.88;;
15958;SDS011;8078;47.822;9.402;2022-07-25T03:14:53;11.18;;;9.90;;
15958;SDS011;8078;47.822;9.402;2022-07-25T03:17:18;15.38;;;10.88;;
15958;SDS011;8078;47.822;9.402;2022-07-25T03:19:44;11.90;;;10.65;;
15958;SDS011;8078;47.822;9.402;2022-07-25T03:22:09;12.27;;;10.65;;
15958;SDS011;8078;47.822;9.402;2022-07-25T03:24:35;12.35;;;10.18;;
15958;SDS011;8078;47.822;9.402;2022-07-25T03:27:00;13.38;;;10.45;;
15958;SDS011;8078;47.822;9.402;2022-07-25T03:29:27;14.95;;;11.73;;
15958;SDS011;8078;47.822;9.402;2022-07-25T03:31:52;12.65;;;11.15;;
15958;SDS011;8078;47.822;9.402;2022-07-25T03:34:18;14.82;;;11.13;;
15958;SDS011;8078;47.822;9.402;2022-07-25T03:36:43;13.90;;;10.98;;
15958;SDS011;8078;47.822;9.402;2022-07-25T03:39:09;13.32;;;10.70;;
15958;SDS011;8078;47.822;9.402;2022-07-25T03:41:34;14.13;;;11.07;;
15958;SDS011;8078;47.822;9.402;2022-07-25T03:44:00;13.40;;;10.23;;
15958;SDS011;8078;47.822;9.402;2022-07-25T03:46:25;11.70;;;10.50;;
15958;SDS011;8078;47.822;9.402;2022-07-25T03:48:51;12.48;;;11.18;;
15958;SDS011;8078;47.822;9.402;2022-07-25T03:51:17;11.32;;;9.85;;
15958;SDS011;8078;47.822;9.402;2022-07-25T03:53:42;12.02;;;10.30;;
15958;SDS011;8078;47.822;9.402;2022-07-25T03:56:26;11.10;;;9.90;;
15958;SDS011;8078;47.822;9.402;2022-07-25T03:58:52;13.23;;;10.18;;
15958;SDS011;8078;47.822;9.402;2022-07-25T04:01:18;10.25;;;8.95;;
15958;SDS011;8078;47.822;9.402;2022-07-25T04:03:44;11.60;;;8.00;;
15958;SDS011;8078;47.822;9.402;2022-07-25T04:06:10;13.25;;;8.93;;
15958;SDS011;8078;47.822;9.402;2022-07-25T04:08:35;9.18;;;8.13;;
15958;SDS011;8078;47.822;9.402;2022-07-25T04:11:01;10.20;;;7.70;;
15958;SDS011;8078;47.822;9.402;2022-07-25T04:13:26;9.80;;;8.40;;
15958;SDS011;8078;47.822;9.402;2022-07-25T04:15:52;10.98;;;8.20;;
15958;SDS011;8078;47.822;9.402;2022-07-25T04:18:18;10.25;;;8.27;;
15958;SDS011;8078;47.822;9.402;2022-07-25T04:20:43;11.15;;;8.63;;
15958;SDS011;8078;47.822;9.402;2022-07-25T04:23:09;8.13;;;7.32;;
15958;SDS011;8078;47.822;9.402;2022-07-25T04:25:34;9.38;;;8.43;;
15958;SDS011;8078;47.822;9.402;2022-07-25T04:28:01;8.98;;;8.07;;
15958;SDS011;8078;47.822;9.402;2022-07-25T04:30:27;9.77;;;8.13;;
15958;SDS011;8078;47.822;9.402;2022-07-25T04:32:53;11.23;;;8.80;;
15958;SDS011;8078;47.822;9.402;2022-07-25T04:35:19;10.48;;;8.38;;
15958;SDS011;8078;47.822;9.402;2022-07-25T04:37:45;10.85;;;9.48;;
15958;SDS011;8078;47.822;9.402;2022-07-25T04:40:10;12.48;;;9.63;;
15958;SDS011;8078;47.822;9.402;2022-07-25T04:42:36;10.30;;;9.20;;
15958;SDS011;8078;47.822;9.402;2022-07-25T04:45:02;11.27;;;8.48;;
15958;SDS011;8078;47.822;9.402;2022-07-25T04:47:28;10.00;;;9.00;;
15958;SDS011;8078;47.822;9.402;2022-07-25T04:49:54;13.05;;;9.05;;
15958;SDS011;8078;47.822;9.402;2022-07-25T04:52:19;11.25;;;9.20;;
15958;SDS011;8078;47.822;9.402;2022-07-25T04:54:45;11.85;;;9.35;;
15958;SDS011;8078;47.822;9.402;2022-07-25T04:57:10;13.13;;;9.82;;
15958;SDS011;8078;47.822;9.402;2022-07-25T04:59:36;10.13;;;9.13;;
15958;SDS011;8078;47.822;9.402;2022-07-25T05:02:02;10.95;;;9.00;;
15958;SDS011;8078;47.822;9.402;2022-07-25T05:04:27;10.63;;;9.07;;
15958;SDS011;8078;47.822;9.402;2022-07-25T05:06:53;10.32;;;9.30;;
15958;SDS011;8078;47.822;9.402;2022-07-25T05:09:19;11.80;;;9.77;;
15958;SDS011;8078;47.822;9.402;2022-07-25T05:11:45;12.52;;;9.40;;
15958;SDS011;8078;47.822;9.402;2022-07-25T05:14:10;11.25;;;10.13;;
15958;SDS011;8078;47.822;9.402;2022-07-25T05:16:36;11.55;;;9.88;;
15958;SDS011;8078;47.822;9.402;2022-07-25T05:19:01;11.98;;;10.68;;
15958;SDS011;8078;47.822;9.402;2022-07-25T05:21:27;14.55;;;11.60;;
15958;SDS011;8078;47.822;9.402;2022-07-25T05:23:53;13.18;;;11.18;;
15958;SDS011;8078;47.822;9.402;2022-07-25T05:26:18;13.82;;;12.27;;
15958;SDS011;8078;47.822;9.402;2022-07-25T05:28:44;15.38;;;12.40;;
15958;SDS011;8078;47.822;9.402;2022-07-25T05:31:09;16.48;;;12.98;;
15958;SDS011;8078;47.822;9.402;2022-07-25T05:33:35;14.98;;;13.18;;
15958;SDS011;8078;47.822;9.402;2022-07-25T05:36:00;13.88;;;12.20;;
15958;SDS011;8078;47.822;9.402;2022-07-25T05:38:27;16.58;;;13.77;;
15958;SDS011;8078;47.822;9.402;2022-07-25T05:40:53;15.80;;;13.10;;
15958;SDS011;8078;47.822;9.402;2022-07-25T05:43:19;15.80;;;13.35;;
15958;SDS011;8078;47.822;9.402;2022-07-25T05:45:45;15.07;;;13.35;;
15958;SDS011;8078;47.822;9.402;2022-07-25T05:48:14;18.23;;;14.20;;
15958;SDS011;8078;47.822;9.402;2022-07-25T05:50:39;16.58;;;13.93;;
15958;SDS011;8078;47.822;9.402;2022-07-25T05:53:05;17.60;;;12.93;;
15958;SDS011;8078;47.822;9.402;2022-07-25T05:55:31;14.00;;;12.50;;
15958;SDS011;8078;47.822;9.402;2022-07-25T05:57:56;15.38;;;13.38;;
15958;SDS011;8078;47.822;9.402;2022-07-25T06:00:22;14.30;;;12.90;;
15958;SDS011;8078;47.822;9.402;2022-07-25T06:02:48;14.43;;;12.82;;
15958;SDS011;8078;47.822;9.402;2022-07-25T06:05:14;15.60;;;13.45;;
15958;SDS011;8078;47.822;9.402;2022-07-25T06:07:39;14.27;;;12.27;;
15958;SDS011;8078;47.822;9.402;2022-07-25T06:10:06;16.83;;;12.75;;
15958;SDS011;8078;47.822;9.402;2022-07-25T06:12:32;14.85;;;12.68;;
15958;SDS011;8078;47.822;9.402;2022-07-25T06:14:58;13.95;;;12.40;;
15958;SDS011;8078;47.822;9.402;2022-07-25T06:17:25;14.80;;;12.15;;
15958;SDS011;8078;47.822;9.402;2022-07-25T06:19:51;13.93;;;12.48;;
15958;SDS011;8078;47.822;9.402;2022-07-25T06:22:16;16.08;;;13.07;;
15958;SDS011;8078;47.822;9.402;2022-07-25T06:24:43;16.05;;;13.55;;
15958;SDS011;8078;47.822;9.402;2022-07-25T06:27:09;14.00;;;12.50;;
15958;SDS011;8078;47.822;9.402;2022-07-25T06:29:36;15.43;;;12.32;;
15958;SDS011;8078;47.822;9.402;2022-07-25T06:32:02;14.65;;;13.10;;
15958;SDS011;8078;47.822;9.402;2022-07-25T06:34:28;14.32;;;12.13;;
15958;SDS011;8078;47.822;9.402;2022-07-25T06:36:54;15.95;;;13.07;;
15958;SDS011;8078;47.822;9.402;2022-07-25T06:39:21;14.15;;;12.68;;
15958;SDS011;8078;47.822;9.402;2022-07-25T06:41:47;16.92;;;13.60;;
15958;SDS011;8078;47.822;9.402;2022-07-25T06:44:12;14.95;;;13.45;;
15958;SDS011;8078;47.822;9.402;2022-07-25T06:46:38;14.98;;;13.30;;
15958;SDS011;8078;47.822;9.402;2022-07-25T06:49:04;16.08;;;13.40;;
15958;SDS011;8078;47.822;9.402;2022-07-25T06:51:29;15.35;;;13.18;;
15958;SDS011;8078;47.822;9.402;2022-07-25T06:53:55;15.32;;;13.40;;
15958;SDS011;8078;47.822;9.402;2022-07-25T06:56:21;14.40;;;12.82;;
15958;SDS011;8078;47.822;9.402;2022-07-25T06:58:46;14.73;;;13.23;;
15958;SDS011;8078;47.822;9.402;2022-07-25T07:01:12;15.15;;;12.75;;
15958;SDS011;8078;47.822;9.402;2022-07-25T07:03:38;14.40;;;12.88;;
15958;SDS011;8078;47.822;9.402;2022-07-25T07:06:04;14.15;;;12.75;;
15958;SDS011;8078;47.822;9.402;2022-07-25T07:08:30;15.73;;;12.80;;
15958;SDS011;8078;47.822;9.402;2022-07-25T07:10:56;14.77;;;11.88;;
15958;SDS011;8078;47.822;9.402;2022-07-25T07:13:22;14.07;;;12.60;;
15958;SDS011;8078;47.822;9.402;2022-07-25T07:15:48;15.73;;;12.95;;
15958;SDS011;8078;47.822;9.402;2022-07-25T07:18:18;14.65;;;12.25;;
15958;SDS011;8078;47.822;9.402;2022-07-25T07:20:44;14.10;;;12.40;;
15958;SDS011;8078;47.822;9.402;2022-07-25T07:23:11;14.30;;;12.50;;
15958;SDS011;8078;47.822;9.402;2022-07-25T07:25:37;14.48;;;12.85;;
15958;SDS011;8078;47.822;9.402;2022-07-25T07:28:03;15.60;;;13.15;;
15958;SDS011;8078;47.822;9.402;2022-07-25T07:30:28;14.57;;;13.07;;
15958;SDS011;8078;47.822;9.402;2022-07-25T07:32:54;13.95;;;12.45;;
15958;SDS011;8078;47.822;9.402;2022-07-25T07:35:20;16.83;;;13.07;;
15958;SDS011;8078;47.822;9.402;2022-07-25T07:37:45;13.20;;;11.80;;
15958;SDS011;8078;47.822;9.402;2022-07-25T07:40:14;16.25;;;12.88;;
15958;SDS011;8078;47.822;9.402;2022-07-25T07:42:40;16.92;;;12.75;;
15958;SDS011;8078;47.822;9.402;2022-07-25T07:45:12;16.30;;;13.85;;
15958;SDS011;8078;47.822;9.402;2022-07-25T07:47:42;15.10;;;13.27;;
15958;SDS011;8078;47.822;9.402;2022-07-25T07:50:09;13.98;;;12.25;;
15958;SDS011;8078;47.822;9.402;2022-07-25T07:52:35;14.88;;;12.27;;
15958;SDS011;8078;47.822;9.402;2022-07-25T07:55:01;15.15;;;13.27;;
15958;SDS011;8078;47.822;9.402;2022-07-25T07:57:45;14.80;;;13.02;;
15958;SDS011;8078;47.822;9.402;2022-07-25T08:00:11;17.75;;;12.93;;
15958;SDS011;8078;47.822;9.402;2022-07-25T08:02:41;15.05;;;13.55;;
15958;SDS011;8078;47.822;9.402;2022-07-25T08:05:08;15.50;;;13.30;;
15958;SDS011;8078;47.822;9.402;2022-07-25T08:07:33;16.10;;;12.77;;
15958;SDS011;8078;47.822;9.402;2022-07-25T08:09:59;15.07;;;13.52;;
15958;SDS011;8078;47.822;9.402;2022-07-25T08:12:24;14.65;;;12.98;;
15958;SDS011;8078;47.822;9.402;2022-07-25T08:14:50;13.60;;;12.20;;
15958;SDS011;8078;47.822;9.402;2022-07-25T08:17:15;14.85;;;12.90;;
15958;SDS011;8078;47.822;9.402;2022-07-25T08:19:41;14.20;;;12.45;;
15958;SDS011;8078;47.822;9.402;2022-07-25T08:22:07;14.48;;;13.00;;
15958;SDS011;8078;47.822;9.402;2022-07-25T08:24:32;13.98;;;12.50;;
15958;SDS011;8078;47.822;9.402;2022-07-25T08:26:58;13.20;;;11.77;;
15958;SDS011;8078;47.822;9.402;2022-07-25T08:29:23;13.75;;;12.32;;
15958;SDS011;8078;47.822;9.402;2022-07-25T08:31:49;13.82;;;12.43;;
15958;SDS011;8078;47.822;9.402;2022-07-25T08:34:14;13.75;;;12.35;;
15958;SDS011;8078;47.822;9.402;2022-07-25T08:36:40;17.25;;;13.32;;
15958;SDS011;8078;47.822;9.402;2022-07-25T08:39:05;15.57;;;13.55;;
15958;SDS011;8078;47.822;9.402;2022-07-25T08:41:32;14.95;;;13.45;;
15958;SDS011;8078;47.822;9.402;2022-07-25T08:43:57;13.80;;;12.40;;
15958;SDS011;8078;47.822;9.402;2022-07-25T08:46:24;15.43;;;12.85;;
15958;SDS011;8078;47.822;9.402;2022-07-25T08:48:50;24.33;;;13.32;;
15958;SDS011;8078;47.822;9.402;2022-07-25T08:51:16;14.75;;;13.25;;
15958;SDS011;8078;47.822;9.402;2022-07-25T08:53:42;13.90;;;12.27;;
15958;SDS011;8078;47.822;9.402;2022-07-25T08:56:09;14.10;;;12.60;;
15958;SDS011;8078;47.822;9.402;2022-07-25T08:58:34;17.58;;;12.82;;
15958;SDS011;8078;47.822;9.402;2022-07-25T09:01:00;14.57;;;13.05;;
15958;SDS011;8078;47.822;9.402;2022-07-25T09:03:26;14.25;;;12.80;;
15958;SDS011;8078;47.822;9.402;2022-07-25T09:05:52;15.77;;;13.00;;
15958;SDS011;8078;47.822;9.402;2022-07-25T09:08:17;15.52;;;12.77;;
15958;SDS011;8078;47.822;9.402;2022-07-25T09:10:47;14.65;;;12.98;;
15958;SDS011;8078;47.822;9.402;2022-07-25T09:13:14;14.32;;;12.65;;
15958;SDS011;8078;47.822;9.402;2022-07-25T09:15:43;17.45;;;12.52;;
15958;SDS011;8078;47.822;9.402;2022-07-25T09:18:14;15.20;;;12.88;;
15958;SDS011;8078;47.822;9.402;2022-07-25T09:20:43;16.45;;;12.82;;
15958;SDS011;8078;47.822;9.402;2022-07-25T09:23:14;13.90;;;11.90;;
15958;SDS011;8078;47.822;9.402;2022-07-25T09:28:28;14.82;;;13.13;;
15958;SDS011;8078;47.822;9.402;2022-07-25T09:30:58;15.60;;;12.57;;
15958;SDS011;8078;47.822;9.402;2022-07-25T09:33:26;13.55;;;12.15;;
15958;SDS011;8078;47.822;9.402;2022-07-25T09:35:52;13.77;;;12.38;;
15958;SDS011;8078;47.822;9.402;2022-07-25T09:38:19;13.63;;;12.13;;
15958;SDS011;8078;47.822;9.402;2022-07-25T09:40:56;14.05;;;12.27;;
15958;SDS011;8078;47.822;9.402;2022-07-25T09:43:39;14.75;;;13.25;;
15958;SDS011;8078;47.822;9.402;2022-07-25T09:46:08;17.33;;;12.52;;
15958;SDS011;8078;47.822;9.402;2022-07-25T09:48:36;14.32;;;12.75;;
15958;SDS011;8078;47.822;9.402;2022-07-25T09:51:03;13.90;;;12.40;;
15958;SDS011;8078;47.822;9.402;2022-07-25T09:53:30;15.57;;;12.77;;
15958;SDS011;8078;47.822;9.402;2022-07-25T09:55:56;13.18;;;11.70;;
15958;SDS011;8078;47.822;9.402;2022-07-25T09:58:25;13.20;;;11.20;;
15958;SDS011;8078;47.822;9.402;2022-07-25T10:00:53;12.80;;;11.50;;
15958;SDS011;8078;47.822;9.402;2022-07-25T10:06:38;14.45;;;12.80;;
15958;SDS011;8078;47.822;9.402;2022-07-25T10:09:11;13.98;;;12.57;;
15958;SDS011;8078;47.822;9.402;2022-07-25T10:11:38;15.15;;;13.02;;
15958;SDS011;8078;47.822;9.402;2022-07-25T10:14:08;13.88;;;11.30;;
15958;SDS011;8078;47.822;9.402;2022-07-25T10:16:43;13.52;;;11.65;;
15958;SDS011;8078;47.822;9.402;2022-07-25T10:19:10;12.50;;;11.20;;
15958;SDS011;8078;47.822;9.402;2022-07-25T10:21:36;11.80;;;10.50;;
15958;SDS011;8078;47.822;9.402;2022-07-25T10:24:09;12.32;;;10.63;;
15958;SDS011;8078;47.822;9.402;2022-07-25T10:26:38;13.85;;;10.27;;
15958;SDS011;8078;47.822;9.402;2022-07-25T10:29:14;13.90;;;10.05;;
15958;SDS011;8078;47.822;9.402;2022-07-25T10:31:41;13.77;;;11.48;;
15958;SDS011;8078;47.822;9.402;2022-07-25T10:34:10;12.57;;;11.30;;
15958;SDS011;8078;47.822;9.402;2022-07-25T10:36:45;12.77;;;11.48;;
15958;SDS011;8078;47.822;9.402;2022-07-25T10:39:12;12.35;;;10.93;;
15958;SDS011;8078;47.822;9.402;2022-07-25T10:41:40;12.30;;;11.02;;
15958;SDS011;8078;47.822;9.402;2022-07-25T10:44:11;12.30;;;11.02;;
15958;SDS011;8078;47.822;9.402;2022-07-25T10:46:38;12.23;;;10.95;;
15958;SDS011;8078;47.822;9.402;2022-07-25T10:49:05;12.98;;;11.32;;
15958;SDS011;8078;47.822;9.402;2022-07-25T10:51:32;14.07;;;10.75;;
15958;SDS011;8078;47.822;9.402;2022-07-25T10:54:16;11.88;;;10.77;;
15958;SDS011;8078;47.822;9.402;2022-07-25T10:56:55;12.85;;;10.90;;
15958;SDS011;8078;47.822;9.402;2022-07-25T10:59:25;11.73;;;10.52;;
15958;SDS011;8078;47.822;9.402;2022-07-25T11:02:04;13.48;;;11.15;;
15958;SDS011;8078;47.822;9.402;2022-07-25T11:04:32;11.55;;;10.43;;
15958;SDS011;8078;47.822;9.402;2022-07-25T11:07:11;11.60;;;10.50;;
15958;SDS011;8078;47.822;9.402;2022-07-25T11:09:41;15.07;;;10.75;;
15958;SDS011;8078;47.822;9.402;2022-07-25T11:12:08;13.57;;;10.27;;
15958;SDS011;8078;47.822;9.402;2022-07-25T11:14:39;10.75;;;9.65;;
15958;SDS011;8078;47.822;9.402;2022-07-25T11:17:13;11.82;;;10.38;;
15958;SDS011;8078;47.822;9.402;2022-07-25T11:19:41;12.20;;;9.85;;
15958;SDS011;8078;47.822;9.402;2022-07-25T11:22:07;12.90;;;10.65;;
15958;SDS011;8078;47.822;9.402;2022-07-25T11:24:37;11.18;;;10.07;;
15958;SDS011;8078;47.822;9.402;2022-07-25T11:27:04;11.93;;;9.85;;
15958;SDS011;8078;47.822;9.402;2022-07-25T11:29:30;11.40;;;9.60;;
15958;SDS011;8078;47.822;9.402;2022-07-25T11:31:57;11.02;;;9.85;;
15958;SDS011;8078;47.822;9.402;2022-07-25T11:34:49;10.95;;;9.70;;
15958;SDS011;8078;47.822;9.402;2022-07-25T11:37:18;10.75;;;9.63;;
15958;SDS011;8078;47.822;9.402;2022-07-25T11:39:44;10.68;;;9.60;;
15958;SDS011;8078;47.822;9.402;2022-07-25T11:42:12;9.52;;;8.63;;
15958;SDS011;8078;47.822;9.402;2022-07-25T11:49:52;11.35;;;9.27;;
15958;SDS011;8078;47.822;9.402;2022-07-25T11:54:54;11.60;;;9.43;;
15958;SDS011;8078;47.822;9.402;2022-07-25T11:57:22;10.15;;;8.52;;
15958;SDS011;8078;47.822;9.402;2022-07-25T11:59:52;9.80;;;8.90;;
15958;SDS011;8078;47.822;9.402;2022-07-25T12:04:57;11.38;;;8.90;;
15958;SDS011;8078;47.822;9.402;2022-07-25T12:10:07;10.82;;;8.73;;
15958;SDS011;8078;47.822;9.402;2022-07-25T12:12:45;9.63;;;8.60;;
15958;SDS011;8078;47.822;9.402;2022-07-25T12:15:19;8.88;;;7.90;;
15958;SDS011;8078;47.822;9.402;2022-07-25T12:17:46;9.18;;;8.27;;
15958;SDS011;8078;47.822;9.402;2022-07-25T12:20:14;9.07;;;8.27;;
15958;SDS011;8078;47.822;9.402;2022-07-25T12:22:44;8.70;;;7.90;;
15958;SDS011;8078;47.822;9.402;2022-07-25T12:25:11;9.13;;;8.15;;
15958;SDS011;8078;47.822;9.402;2022-07-25T12:27:37;9.30;;;8.05;;
15958;SDS011;8078;47.822;9.402;2022-07-25T12:30:04;8.85;;;7.43;;
15958;SDS011;8078;47.822;9.402;2022-07-25T12:32:30;8.43;;;7.55;;
15958;SDS011;8078;47.822;9.402;2022-07-25T12:34:56;8.00;;;7.15;;
15958;SDS011;8078;47.822;9.402;2022-07-25T12:37:22;7.55;;;6.93;;
15958;SDS011;8078;47.822;9.402;2022-07-25T12:39:47;9.15;;;7.32;;
15958;SDS011;8078;47.822;9.402;2022-07-25T12:42:13;9.32;;;7.47;;
15958;SDS011;8078;47.822;9.402;2022-07-25T12:44:39;9.25;;;7.50;;
15958;SDS011;8078;47.822;9.402;2022-07-25T12:47:04;8.93;;;7.35;;
15958;SDS011;8078;47.822;9.402;2022-07-25T12:49:30;9.07;;;6.95;;
15958;SDS011;8078;47.822;9.402;2022-07-25T12:51:56;7.20;;;6.50;;
15958;SDS011;8078;47.822;9.402;2022-07-25T12:54:22;9.85;;;6.88;;
15958;SDS011;8078;47.822;9.402;2022-07-25T12:56:47;6.93;;;6.22;;
15958;SDS011;8078;47.822;9.402;2022-07-25T12:59:13;9.82;;;7.25;;
15958;SDS011;8078;47.822;9.402;2022-07-25T13:01:39;9.30;;;6.65;;
15958;SDS011;8078;47.822;9.402;2022-07-25T13:04:05;7.03;;;6.22;;
15958;SDS011;8078;47.822;9.402;2022-07-25T13:06:33;8.35;;;6.82;;
15958;SDS011;8078;47.822;9.402;2022-07-25T13:08:59;6.88;;;6.28;;
15958;SDS011;8078;47.822;9.402;2022-07-25T13:11:25;9.88;;;7.07;;
15958;SDS011;8078;47.822;9.402;2022-07-25T13:13:50;9.25;;;7.03;;
15958;SDS011;8078;47.822;9.402;2022-07-25T13:16:16;7.10;;;6.25;;
15958;SDS011;8078;47.822;9.402;2022-07-25T13:18:41;9.52;;;6.65;;
15958;SDS011;8078;47.822;9.402;2022-07-25T13:21:08;7.25;;;6.55;;
15958;SDS011;8078;47.822;9.402;2022-07-25T13:23:34;9.75;;;6.28;;
15958;SDS011;8078;47.822;9.402;2022-07-25T13:26:00;7.63;;;6.82;;
15958;SDS011;8078;47.822;9.402;2022-07-25T13:28:26;8.27;;;6.78;;
15958;SDS011;8078;47.822;9.402;2022-07-25T13:30:52;8.07;;;6.45;;
15958;SDS011;8078;47.822;9.402;2022-07-25T13:33:17;7.25;;;6.55;;
15958;SDS011;8078;47.822;9.402;2022-07-25T13:35:43;7.60;;;6.88;;
15958;SDS011;8078;47.822;9.402;2022-07-25T13:38:09;7.72;;;6.93;;
15958;SDS011;8078;47.822;9.402;2022-07-25T13:40:35;7.53;;;6.82;;
15958;SDS011;8078;47.822;9.402;2022-07-25T13:43:05;11.48;;;7.07;;
15958;SDS011;8078;47.822;9.402;2022-07-25T13:45:35;7.53;;;6.65;;
15958;SDS011;8078;47.822;9.402;2022-07-25T13:48:01;7.30;;;6.60;;
15958;SDS011;8078;47.822;9.402;2022-07-25T13:50:27;8.73;;;7.00;;
15958;SDS011;8078;47.822;9.402;2022-07-25T13:52:53;8.15;;;6.55;;
15958;SDS011;8078;47.822;9.402;2022-07-25T13:55:21;6.80;;;6.15;;
15958;SDS011;8078;47.822;9.402;2022-07-25T13:57:47;7.05;;;6.35;;
15958;SDS011;8078;47.822;9.402;2022-07-25T14:00:13;7.93;;;6.63;;
15958;SDS011;8078;47.822;9.402;2022-07-25T14:02:39;7.18;;;6.47;;
15958;SDS011;8078;47.822;9.402;2022-07-25T14:05:04;10.98;;;7.15;;
15958;SDS011;8078;47.822;9.402;2022-07-25T14:07:31;8.40;;;6.90;;
15958;SDS011;8078;47.822;9.402;2022-07-25T14:09:58;7.32;;;6.63;;
15958;SDS011;8078;47.822;9.402;2022-07-25T14:12:24;6.95;;;6.32;;
15958;SDS011;8078;47.822;9.402;2022-07-25T14:14:49;7.68;;;6.97;;
15958;SDS011;8078;47.822;9.402;2022-07-25T14:17:15;7.40;;;6.70;;
15958;SDS011;8078;47.822;9.402;2022-07-25T14:19:40;8.70;;;6.70;;
15958;SDS011;8078;47.822;9.402;2022-07-25T14:22:06;7.63;;;6.63;;
15958;SDS011;8078;47.822;9.402;2022-07-25T14:24:32;7.75;;;6.40;;
15958;SDS011;8078;47.822;9.402;2022-07-25T14:26:57;7.57;;;6.25;;
15958;SDS011;8078;47.822;9.402;2022-07-25T14:29:23;7.72;;;6.75;;
15958;SDS011;8078;47.822;9.402;2022-07-25T14:31:48;7.53;;;6.63;;
15958;SDS011;8078;47.822;9.402;2022-07-25T14:34:14;8.68;;;6.70;;
15958;SDS011;8078;47.822;9.402;2022-07-25T14:36:40;7.63;;;6.68;;
15958;SDS011;8078;47.822;9.402;2022-07-25T14:39:06;6.90;;;6.30;;
15958;SDS011;8078;47.822;9.402;2022-07-25T14:41:32;9.02;;;7.20;;
15958;SDS011;8078;47.822;9.402;2022-07-25T14:43:57;10.23;;;7.10;;
15958;SDS011;8078;47.822;9.402;2022-07-25T14:46:23;11.35;;;6.90;;
15958;SDS011;8078;47.822;9.402;2022-07-25T14:48:49;8.55;;;7.60;;
15958;SDS011;8078;47.822;9.402;2022-07-25T14:51:16;7.80;;;7.10;;
15958;SDS011;8078;47.822;9.402;2022-07-25T14:53:42;13.07;;;7.50;;
15958;SDS011;8078;47.822;9.402;2022-07-25T14:56:08;7.22;;;6.43;;
15958;SDS011;8078;47.822;9.402;2022-07-25T14:58:33;8.23;;;7.07;;